sensor_id;sensor_type;location;lat;lon;timestamp;P1;durP1;ratioP1;P2;durP2;ratioP2
64875;SDS011;51369;49.862;9.908;2022-08-01T00:01:36;3.97;;;3.10;;
64875;SDS011;51369;49.862;9.908;2022-08-01T00:04:02;3.67;;;2.58;;
64875;SDS011;51369;49.862;9.908;2022-08-01T00:06:28;3.20;;;2.90;;
64875;SDS011;51369;49.862;9.908;2022-08-01T00:08:53;5.15;;;2.80;;
64875;SDS011;51369;49.862;9.908;2022-08-01T00:11:19;3.33;;;2.90;;
64875;SDS011;51369;49.862;9.908;2022-08-01T00:13:44;4.53;;;3.00;;
64875;SDS011;51369;49.862;9.908;2022-08-01T00:16:09;4.80;;;3.60;;
64875;SDS011;51369;49.862;9.908;2022-08-01T00:18:35;2.17;;;1.98;;
64875;SDS011;51369;49.862;9.908;2022-08-01T00:21:01;3.63;;;3.05;;
64875;SDS011;51369;49.862;9.908;2022-08-01T00:23:28;4.13;;;2.80;;
64875;SDS011;51369;49.862;9.908;2022-08-01T00:25:53;5.75;;;2.92;;
64875;SDS011;51369;49.862;9.908;2022-08-01T00:28:19;3.30;;;2.55;;
64875;SDS011;51369;49.862;9.908;2022-08-01T00:30:45;4.53;;;3.08;;
64875;SDS011;51369;49.862;9.908;2022-08-01T00:33:10;3.80;;;2.88;;
64875;SDS011;51369;49.862;9.908;2022-08-01T00:35:36;3.38;;;2.70;;
64875;SDS011;51369;49.862;9.908;2022-08-01T00:38:01;5.10;;;2.95;;
64875;SDS011;51369;49.862;9.908;2022-08-01T00:40:26;5.55;;;2.65;;
64875;SDS011;51369;49.862;9.908;2022-08-01T00:42:52;3.60;;;2.42;;
64875;SDS011;51369;49.862;9.908;2022-08-01T00:45:17;3.15;;;2.85;;
64875;SDS011;51369;49.862;9.908;2022-08-01T00:47:42;3.63;;;2.47;;
64875;SDS011;51369;49.862;9.908;2022-08-01T00:50:08;5.50;;;2.85;;
64875;SDS011;51369;49.862;9.908;2022-08-01T00:52:34;4.70;;;3.45;;
64875;SDS011;51369;49.862;9.908;2022-08-01T00:55:00;2.67;;;2.45;;
64875;SDS011;51369;49.862;9.908;2022-08-01T00:57:26;4.65;;;2.97;;
64875;SDS011;51369;49.862;9.908;2022-08-01T00:59:52;3.80;;;2.60;;
64875;SDS011;51369;49.862;9.908;2022-08-01T01:02:18;4.65;;;2.60;;
64875;SDS011;51369;49.862;9.908;2022-08-01T01:04:43;2.85;;;2.65;;
64875;SDS011;51369;49.862;9.908;2022-08-01T01:07:10;3.05;;;2.60;;
64875;SDS011;51369;49.862;9.908;2022-08-01T01:14:56;4.65;;;2.75;;
64875;SDS011;51369;49.862;9.908;2022-08-01T01:17:27;5.32;;;2.75;;
64875;SDS011;51369;49.862;9.908;2022-08-01T01:19:57;3.28;;;2.75;;
64875;SDS011;51369;49.862;9.908;2022-08-01T01:25:32;3.13;;;2.72;;
64875;SDS011;51369;49.862;9.908;2022-08-01T01:31:08;4.57;;;3.28;;
64875;SDS011;51369;49.862;9.908;2022-08-01T01:33:37;2.95;;;2.65;;
64875;SDS011;51369;49.862;9.908;2022-08-01T01:36:05;5.82;;;2.55;;
64875;SDS011;51369;49.862;9.908;2022-08-01T01:38:36;6.13;;;2.80;;
64875;SDS011;51369;49.862;9.908;2022-08-01T01:41:02;3.13;;;2.78;;
64875;SDS011;51369;49.862;9.908;2022-08-01T01:43:30;3.33;;;2.75;;
64875;SDS011;51369;49.862;9.908;2022-08-01T01:45:57;4.80;;;2.63;;
64875;SDS011;51369;49.862;9.908;2022-08-01T01:48:23;3.03;;;2.70;;
64875;SDS011;51369;49.862;9.908;2022-08-01T01:50:50;2.28;;;2.10;;
64875;SDS011;51369;49.862;9.908;2022-08-01T01:53:18;6.45;;;2.55;;
64875;SDS011;51369;49.862;9.908;2022-08-01T01:55:45;3.45;;;2.60;;
64875;SDS011;51369;49.862;9.908;2022-08-01T01:58:13;4.13;;;2.70;;
64875;SDS011;51369;49.862;9.908;2022-08-01T02:00:40;8.30;;;2.63;;
64875;SDS011;51369;49.862;9.908;2022-08-01T02:03:09;3.00;;;2.47;;
64875;SDS011;51369;49.862;9.908;2022-08-01T02:05:36;2.72;;;2.42;;
64875;SDS011;51369;49.862;9.908;2022-08-01T02:08:03;3.88;;;2.80;;
64875;SDS011;51369;49.862;9.908;2022-08-01T02:10:31;4.05;;;2.40;;
64875;SDS011;51369;49.862;9.908;2022-08-01T02:12:57;3.88;;;2.38;;
64875;SDS011;51369;49.862;9.908;2022-08-01T02:15:27;4.80;;;2.50;;
64875;SDS011;51369;49.862;9.908;2022-08-01T02:17:54;3.67;;;2.47;;
64875;SDS011;51369;49.862;9.908;2022-08-01T02:20:21;3.33;;;2.60;;
64875;SDS011;51369;49.862;9.908;2022-08-01T02:22:50;6.82;;;2.88;;
64875;SDS011;51369;49.862;9.908;2022-08-01T02:25:36;3.08;;;2.78;;
64875;SDS011;51369;49.862;9.908;2022-08-01T02:28:10;2.75;;;2.47;;
64875;SDS011;51369;49.862;9.908;2022-08-01T02:30:41;3.83;;;2.90;;
64875;SDS011;51369;49.862;9.908;2022-08-01T02:35:48;4.85;;;2.30;;
64875;SDS011;51369;49.862;9.908;2022-08-01T02:38:17;4.45;;;2.53;;
64875;SDS011;51369;49.862;9.908;2022-08-01T02:40:46;2.63;;;2.38;;
64875;SDS011;51369;49.862;9.908;2022-08-01T02:43:15;3.25;;;2.50;;
64875;SDS011;51369;49.862;9.908;2022-08-01T02:45:45;2.65;;;2.40;;
64875;SDS011;51369;49.862;9.908;2022-08-01T02:48:15;5.47;;;2.38;;
64875;SDS011;51369;49.862;9.908;2022-08-01T02:50:44;3.47;;;2.60;;
64875;SDS011;51369;49.862;9.908;2022-08-01T02:53:12;2.70;;;2.50;;
64875;SDS011;51369;49.862;9.908;2022-08-01T02:55:39;2.80;;;2.60;;
64875;SDS011;51369;49.862;9.908;2022-08-01T02:58:07;3.40;;;2.38;;
64875;SDS011;51369;49.862;9.908;2022-08-01T03:00:35;3.10;;;2.47;;
64875;SDS011;51369;49.862;9.908;2022-08-01T03:03:01;4.63;;;2.20;;
64875;SDS011;51369;49.862;9.908;2022-08-01T03:05:29;2.97;;;2.40;;
64875;SDS011;51369;49.862;9.908;2022-08-01T03:07:57;3.03;;;2.55;;
64875;SDS011;51369;49.862;9.908;2022-08-01T03:10:26;2.90;;;2.53;;
64875;SDS011;51369;49.862;9.908;2022-08-01T03:12:53;8.00;;;2.72;;
64875;SDS011;51369;49.862;9.908;2022-08-01T03:15:20;4.03;;;2.38;;
64875;SDS011;51369;49.862;9.908;2022-08-01T03:17:50;3.20;;;2.90;;
64875;SDS011;51369;49.862;9.908;2022-08-01T03:20:18;3.10;;;2.45;;
64875;SDS011;51369;49.862;9.908;2022-08-01T03:22:46;3.03;;;2.53;;
64875;SDS011;51369;49.862;9.908;2022-08-01T03:25:16;3.72;;;2.40;;
64875;SDS011;51369;49.862;9.908;2022-08-01T03:27:43;2.63;;;2.22;;
64875;SDS011;51369;49.862;9.908;2022-08-01T03:30:10;2.72;;;2.25;;
64875;SDS011;51369;49.862;9.908;2022-08-01T03:32:37;2.42;;;2.20;;
64875;SDS011;51369;49.862;9.908;2022-08-01T03:35:03;2.78;;;2.58;;
64875;SDS011;51369;49.862;9.908;2022-08-01T03:37:34;3.55;;;3.00;;
64875;SDS011;51369;49.862;9.908;2022-08-01T03:40:09;4.40;;;2.60;;
64875;SDS011;51369;49.862;9.908;2022-08-01T03:42:50;3.35;;;2.20;;
64875;SDS011;51369;49.862;9.908;2022-08-01T03:45:22;4.35;;;2.65;;
64875;SDS011;51369;49.862;9.908;2022-08-01T03:47:52;3.15;;;2.58;;
64875;SDS011;51369;49.862;9.908;2022-08-01T03:50:24;3.13;;;2.72;;
64875;SDS011;51369;49.862;9.908;2022-08-01T03:52:50;2.55;;;2.35;;
64875;SDS011;51369;49.862;9.908;2022-08-01T03:55:16;3.65;;;2.42;;
64875;SDS011;51369;49.862;9.908;2022-08-01T03:57:44;3.92;;;2.63;;
64875;SDS011;51369;49.862;9.908;2022-08-01T04:00:11;3.90;;;2.22;;
64875;SDS011;51369;49.862;9.908;2022-08-01T04:02:39;5.85;;;2.60;;
64875;SDS011;51369;49.862;9.908;2022-08-01T04:05:05;3.00;;;2.63;;
64875;SDS011;51369;49.862;9.908;2022-08-01T04:07:32;5.80;;;2.40;;
64875;SDS011;51369;49.862;9.908;2022-08-01T04:10:01;3.00;;;2.33;;
64875;SDS011;51369;49.862;9.908;2022-08-01T04:12:26;2.30;;;2.10;;
64875;SDS011;51369;49.862;9.908;2022-08-01T04:14:52;4.97;;;2.42;;
64875;SDS011;51369;49.862;9.908;2022-08-01T04:17:17;2.92;;;2.30;;
64875;SDS011;51369;49.862;9.908;2022-08-01T04:19:43;4.38;;;2.35;;
64875;SDS011;51369;49.862;9.908;2022-08-01T04:22:10;6.35;;;3.22;;
64875;SDS011;51369;49.862;9.908;2022-08-01T04:24:38;4.88;;;2.05;;
64875;SDS011;51369;49.862;9.908;2022-08-01T04:27:08;3.72;;;2.28;;
64875;SDS011;51369;49.862;9.908;2022-08-01T04:29:36;2.35;;;2.10;;
64875;SDS011;51369;49.862;9.908;2022-08-01T04:32:03;5.05;;;2.30;;
64875;SDS011;51369;49.862;9.908;2022-08-01T04:34:32;4.38;;;2.20;;
64875;SDS011;51369;49.862;9.908;2022-08-01T04:36:58;2.42;;;2.20;;
64875;SDS011;51369;49.862;9.908;2022-08-01T04:39:26;2.83;;;2.20;;
64875;SDS011;51369;49.862;9.908;2022-08-01T04:41:53;8.00;;;2.30;;
64875;SDS011;51369;49.862;9.908;2022-08-01T04:44:23;2.55;;;2.22;;
64875;SDS011;51369;49.862;9.908;2022-08-01T04:46:50;3.92;;;2.47;;
64875;SDS011;51369;49.862;9.908;2022-08-01T04:49:19;5.10;;;2.47;;
64875;SDS011;51369;49.862;9.908;2022-08-01T04:51:49;4.00;;;2.30;;
64875;SDS011;51369;49.862;9.908;2022-08-01T04:54:16;4.55;;;2.55;;
64875;SDS011;51369;49.862;9.908;2022-08-01T04:56:42;3.75;;;2.33;;
64875;SDS011;51369;49.862;9.908;2022-08-01T04:59:08;3.42;;;2.40;;
64875;SDS011;51369;49.862;9.908;2022-08-01T05:01:51;4.85;;;2.70;;
64875;SDS011;51369;49.862;9.908;2022-08-01T05:04:17;4.00;;;2.55;;
64875;SDS011;51369;49.862;9.908;2022-08-01T05:06:43;2.65;;;2.20;;
64875;SDS011;51369;49.862;9.908;2022-08-01T05:09:09;3.55;;;2.70;;
64875;SDS011;51369;49.862;9.908;2022-08-01T05:11:34;3.50;;;2.10;;
64875;SDS011;51369;49.862;9.908;2022-08-01T05:14:00;3.47;;;2.20;;
64875;SDS011;51369;49.862;9.908;2022-08-01T05:16:25;2.88;;;2.08;;
64875;SDS011;51369;49.862;9.908;2022-08-01T05:18:51;8.48;;;2.80;;
64875;SDS011;51369;49.862;9.908;2022-08-01T05:21:17;2.22;;;2.03;;
64875;SDS011;51369;49.862;9.908;2022-08-01T05:23:42;3.70;;;2.38;;
64875;SDS011;51369;49.862;9.908;2022-08-01T05:26:07;4.75;;;2.28;;
64875;SDS011;51369;49.862;9.908;2022-08-01T05:28:33;4.53;;;2.47;;
64875;SDS011;51369;49.862;9.908;2022-08-01T05:30:59;2.72;;;1.92;;
64875;SDS011;51369;49.862;9.908;2022-08-01T05:33:24;5.53;;;2.60;;
64875;SDS011;51369;49.862;9.908;2022-08-01T05:35:50;3.13;;;2.13;;
64875;SDS011;51369;49.862;9.908;2022-08-01T05:38:15;6.82;;;2.25;;
64875;SDS011;51369;49.862;9.908;2022-08-01T05:40:41;5.07;;;2.20;;
64875;SDS011;51369;49.862;9.908;2022-08-01T05:43:06;2.25;;;2.05;;
64875;SDS011;51369;49.862;9.908;2022-08-01T05:45:32;6.88;;;2.42;;
64875;SDS011;51369;49.862;9.908;2022-08-01T05:47:57;2.65;;;2.15;;
64875;SDS011;51369;49.862;9.908;2022-08-01T05:50:23;5.47;;;2.13;;
64875;SDS011;51369;49.862;9.908;2022-08-01T05:52:49;5.47;;;2.20;;
64875;SDS011;51369;49.862;9.908;2022-08-01T05:55:14;2.45;;;2.20;;
64875;SDS011;51369;49.862;9.908;2022-08-01T05:57:39;2.88;;;2.28;;
64875;SDS011;51369;49.862;9.908;2022-08-01T06:00:05;3.13;;;2.17;;
64875;SDS011;51369;49.862;9.908;2022-08-01T06:02:39;4.00;;;2.22;;
64875;SDS011;51369;49.862;9.908;2022-08-01T06:05:06;3.78;;;1.98;;
64875;SDS011;51369;49.862;9.908;2022-08-01T06:07:32;2.45;;;1.95;;
64875;SDS011;51369;49.862;9.908;2022-08-01T06:09:57;6.07;;;2.35;;
64875;SDS011;51369;49.862;9.908;2022-08-01T06:12:23;2.63;;;2.28;;
64875;SDS011;51369;49.862;9.908;2022-08-01T06:14:48;3.55;;;2.30;;
64875;SDS011;51369;49.862;9.908;2022-08-01T06:17:14;3.08;;;2.10;;
64875;SDS011;51369;49.862;9.908;2022-08-01T06:19:39;2.78;;;2.30;;
64875;SDS011;51369;49.862;9.908;2022-08-01T06:22:04;2.15;;;1.95;;
64875;SDS011;51369;49.862;9.908;2022-08-01T06:24:30;3.92;;;2.22;;
64875;SDS011;51369;49.862;9.908;2022-08-01T06:26:55;3.08;;;2.50;;
64875;SDS011;51369;49.862;9.908;2022-08-01T06:29:21;3.55;;;2.60;;
64875;SDS011;51369;49.862;9.908;2022-08-01T06:31:46;2.50;;;2.30;;
64875;SDS011;51369;49.862;9.908;2022-08-01T06:34:12;5.53;;;2.40;;
64875;SDS011;51369;49.862;9.908;2022-08-01T06:36:37;3.53;;;2.63;;
64875;SDS011;51369;49.862;9.908;2022-08-01T06:39:03;2.50;;;2.13;;
64875;SDS011;51369;49.862;9.908;2022-08-01T06:41:29;3.20;;;2.20;;
64875;SDS011;51369;49.862;9.908;2022-08-01T06:43:54;2.58;;;2.13;;
64875;SDS011;51369;49.862;9.908;2022-08-01T06:46:19;2.40;;;2.20;;
64875;SDS011;51369;49.862;9.908;2022-08-01T06:48:45;3.95;;;2.63;;
64875;SDS011;51369;49.862;9.908;2022-08-01T06:51:10;3.55;;;2.28;;
64875;SDS011;51369;49.862;9.908;2022-08-01T06:53:40;3.95;;;2.22;;
64875;SDS011;51369;49.862;9.908;2022-08-01T06:56:06;4.80;;;2.55;;
64875;SDS011;51369;49.862;9.908;2022-08-01T06:58:34;4.22;;;2.38;;
64875;SDS011;51369;49.862;9.908;2022-08-01T07:01:00;3.20;;;2.30;;
64875;SDS011;51369;49.862;9.908;2022-08-01T07:03:27;3.05;;;2.40;;
64875;SDS011;51369;49.862;9.908;2022-08-01T07:05:52;3.15;;;2.28;;
64875;SDS011;51369;49.862;9.908;2022-08-01T07:08:18;5.10;;;2.20;;
64875;SDS011;51369;49.862;9.908;2022-08-01T07:10:43;3.53;;;2.60;;
64875;SDS011;51369;49.862;9.908;2022-08-01T07:13:09;3.42;;;2.40;;
64875;SDS011;51369;49.862;9.908;2022-08-01T07:15:34;2.35;;;2.15;;
64875;SDS011;51369;49.862;9.908;2022-08-01T07:18:00;3.05;;;2.20;;
64875;SDS011;51369;49.862;9.908;2022-08-01T07:20:28;2.45;;;2.28;;
64875;SDS011;51369;49.862;9.908;2022-08-01T07:22:54;3.58;;;2.72;;
64875;SDS011;51369;49.862;9.908;2022-08-01T07:25:20;3.08;;;2.10;;
64875;SDS011;51369;49.862;9.908;2022-08-01T07:27:45;4.05;;;2.70;;
64875;SDS011;51369;49.862;9.908;2022-08-01T07:30:11;6.13;;;2.60;;
64875;SDS011;51369;49.862;9.908;2022-08-01T07:32:37;5.50;;;2.45;;
64875;SDS011;51369;49.862;9.908;2022-08-01T07:35:02;2.95;;;2.75;;
64875;SDS011;51369;49.862;9.908;2022-08-01T07:37:28;3.22;;;2.92;;
64875;SDS011;51369;49.862;9.908;2022-08-01T07:39:54;6.70;;;3.42;;
64875;SDS011;51369;49.862;9.908;2022-08-01T07:42:19;4.50;;;3.30;;
64875;SDS011;51369;49.862;9.908;2022-08-01T07:44:46;3.80;;;3.40;;
64875;SDS011;51369;49.862;9.908;2022-08-01T07:47:11;4.30;;;3.17;;
64875;SDS011;51369;49.862;9.908;2022-08-01T07:49:36;3.45;;;3.15;;
64875;SDS011;51369;49.862;9.908;2022-08-01T07:52:02;5.57;;;3.67;;
64875;SDS011;51369;49.862;9.908;2022-08-01T07:54:28;4.03;;;3.58;;
64875;SDS011;51369;49.862;9.908;2022-08-01T07:56:54;6.85;;;3.45;;
64875;SDS011;51369;49.862;9.908;2022-08-01T07:59:20;3.72;;;3.40;;
64875;SDS011;51369;49.862;9.908;2022-08-01T08:01:51;3.90;;;3.13;;
64875;SDS011;51369;49.862;9.908;2022-08-01T08:04:17;5.60;;;3.08;;
64875;SDS011;51369;49.862;9.908;2022-08-01T08:06:42;4.25;;;3.03;;
64875;SDS011;51369;49.862;9.908;2022-08-01T08:09:09;3.50;;;3.20;;
64875;SDS011;51369;49.862;9.908;2022-08-01T08:11:36;4.88;;;3.20;;
64875;SDS011;51369;49.862;9.908;2022-08-01T08:14:01;4.47;;;3.05;;
64875;SDS011;51369;49.862;9.908;2022-08-01T08:16:26;5.03;;;2.80;;
64875;SDS011;51369;49.862;9.908;2022-08-01T08:18:52;3.92;;;3.25;;
64875;SDS011;51369;49.862;9.908;2022-08-01T08:21:17;3.47;;;3.15;;
64875;SDS011;51369;49.862;9.908;2022-08-01T08:23:43;5.20;;;3.33;;
64875;SDS011;51369;49.862;9.908;2022-08-01T08:26:27;2.70;;;2.50;;
64875;SDS011;51369;49.862;9.908;2022-08-01T08:28:53;3.85;;;2.92;;
64875;SDS011;51369;49.862;9.908;2022-08-01T08:31:18;3.53;;;2.90;;
64875;SDS011;51369;49.862;9.908;2022-08-01T08:33:44;3.58;;;3.28;;
64875;SDS011;51369;49.862;9.908;2022-08-01T08:36:09;3.38;;;3.08;;
64875;SDS011;51369;49.862;9.908;2022-08-01T08:38:36;3.22;;;2.95;;
64875;SDS011;51369;49.862;9.908;2022-08-01T08:41:02;2.65;;;2.45;;
64875;SDS011;51369;49.862;9.908;2022-08-01T08:43:27;3.75;;;2.83;;
64875;SDS011;51369;49.862;9.908;2022-08-01T08:45:53;2.67;;;2.47;;
64875;SDS011;51369;49.862;9.908;2022-08-01T08:48:18;7.72;;;2.72;;
64875;SDS011;51369;49.862;9.908;2022-08-01T08:50:44;4.10;;;2.95;;
64875;SDS011;51369;49.862;9.908;2022-08-01T08:53:10;3.53;;;2.65;;
64875;SDS011;51369;49.862;9.908;2022-08-01T08:55:38;2.70;;;2.50;;
64875;SDS011;51369;49.862;9.908;2022-08-01T08:58:04;3.53;;;3.22;;
64875;SDS011;51369;49.862;9.908;2022-08-01T09:00:31;2.80;;;2.60;;
64875;SDS011;51369;49.862;9.908;2022-08-01T09:02:58;4.43;;;2.80;;
64875;SDS011;51369;49.862;9.908;2022-08-01T09:05:23;3.00;;;2.78;;
64875;SDS011;51369;49.862;9.908;2022-08-01T09:07:51;3.35;;;3.05;;
64875;SDS011;51369;49.862;9.908;2022-08-01T09:10:17;5.85;;;2.80;;
64875;SDS011;51369;49.862;9.908;2022-08-01T09:15:48;3.15;;;2.78;;
64875;SDS011;51369;49.862;9.908;2022-08-01T09:23:47;2.47;;;2.28;;
64875;SDS011;51369;49.862;9.908;2022-08-01T09:26:16;2.45;;;2.25;;
64875;SDS011;51369;49.862;9.908;2022-08-01T09:28:44;2.67;;;2.45;;
64875;SDS011;51369;49.862;9.908;2022-08-01T09:31:11;2.58;;;1.90;;
64875;SDS011;51369;49.862;9.908;2022-08-01T09:33:49;5.53;;;2.17;;
64875;SDS011;51369;49.862;9.908;2022-08-01T09:36:17;2.20;;;2.00;;
64875;SDS011;51369;49.862;9.908;2022-08-01T09:38:45;2.40;;;2.20;;
64875;SDS011;51369;49.862;9.908;2022-08-01T09:41:10;2.47;;;2.28;;
64875;SDS011;51369;49.862;9.908;2022-08-01T09:43:36;1.98;;;1.85;;
64875;SDS011;51369;49.862;9.908;2022-08-01T09:46:09;2.78;;;2.00;;
64875;SDS011;51369;49.862;9.908;2022-08-01T09:48:36;2.92;;;1.90;;
64875;SDS011;51369;49.862;9.908;2022-08-01T09:51:05;2.58;;;2.03;;
64875;SDS011;51369;49.862;9.908;2022-08-01T09:53:45;2.20;;;2.00;;
64875;SDS011;51369;49.862;9.908;2022-08-01T09:56:12;3.10;;;2.17;;
64875;SDS011;51369;49.862;9.908;2022-08-01T09:58:48;3.30;;;2.15;;
64875;SDS011;51369;49.862;9.908;2022-08-01T10:01:20;3.40;;;2.05;;
64875;SDS011;51369;49.862;9.908;2022-08-01T10:03:46;1.92;;;1.83;;
64875;SDS011;51369;49.862;9.908;2022-08-01T10:06:28;1.83;;;1.73;;
64875;SDS011;51369;49.862;9.908;2022-08-01T10:08:54;2.95;;;1.92;;
64875;SDS011;51369;49.862;9.908;2022-08-01T10:11:19;4.63;;;2.05;;
64875;SDS011;51369;49.862;9.908;2022-08-01T10:13:46;2.20;;;2.00;;
64875;SDS011;51369;49.862;9.908;2022-08-01T10:16:13;2.97;;;2.10;;
64875;SDS011;51369;49.862;9.908;2022-08-01T10:18:39;2.38;;;2.17;;
64875;SDS011;51369;49.862;9.908;2022-08-01T10:21:06;4.90;;;2.47;;
64875;SDS011;51369;49.862;9.908;2022-08-01T10:23:33;2.40;;;2.20;;
64875;SDS011;51369;49.862;9.908;2022-08-01T10:26:00;2.10;;;1.90;;
64875;SDS011;51369;49.862;9.908;2022-08-01T10:28:27;2.20;;;2.10;;
64875;SDS011;51369;49.862;9.908;2022-08-01T10:30:56;2.67;;;1.60;;
64875;SDS011;51369;49.862;9.908;2022-08-01T10:33:23;2.25;;;2.00;;
64875;SDS011;51369;49.862;9.908;2022-08-01T10:35:52;2.03;;;1.92;;
64875;SDS011;51369;49.862;9.908;2022-08-01T10:38:18;2.28;;;2.13;;
64875;SDS011;51369;49.862;9.908;2022-08-01T10:40:43;2.60;;;2.13;;
64875;SDS011;51369;49.862;9.908;2022-08-01T10:43:10;2.70;;;2.17;;
64875;SDS011;51369;49.862;9.908;2022-08-01T10:45:36;2.42;;;2.22;;
64875;SDS011;51369;49.862;9.908;2022-08-01T10:48:04;2.17;;;2.05;;
64875;SDS011;51369;49.862;9.908;2022-08-01T10:50:44;1.90;;;1.80;;
64875;SDS011;51369;49.862;9.908;2022-08-01T10:58:37;3.13;;;2.53;;
64875;SDS011;51369;49.862;9.908;2022-08-01T11:01:12;2.10;;;1.90;;
64875;SDS011;51369;49.862;9.908;2022-08-01T11:04:01;2.08;;;1.95;;
64875;SDS011;51369;49.862;9.908;2022-08-01T11:06:52;2.38;;;2.17;;
64875;SDS011;51369;49.862;9.908;2022-08-01T11:09:41;1.83;;;1.73;;
64875;SDS011;51369;49.862;9.908;2022-08-01T11:12:12;2.05;;;1.95;;
64875;SDS011;51369;49.862;9.908;2022-08-01T11:15:25;2.42;;;2.03;;
64875;SDS011;51369;49.862;9.908;2022-08-01T11:17:35;1.80;;;1.70;;
64875;SDS011;51369;49.862;9.908;2022-08-01T11:25:23;1.98;;;1.77;;
64875;SDS011;51369;49.862;9.908;2022-08-01T11:27:50;1.75;;;1.65;;
64875;SDS011;51369;49.862;9.908;2022-08-01T11:41:34;3.35;;;1.70;;
64875;SDS011;51369;49.862;9.908;2022-08-01T11:44:02;1.98;;;1.88;;
64875;SDS011;51369;49.862;9.908;2022-08-01T11:46:49;2.00;;;1.80;;
64875;SDS011;51369;49.862;9.908;2022-08-01T11:52:03;1.75;;;1.65;;
64875;SDS011;51369;49.862;9.908;2022-08-01T11:54:39;1.77;;;1.67;;
64875;SDS011;51369;49.862;9.908;2022-08-01T11:57:10;2.15;;;2.00;;
64875;SDS011;51369;49.862;9.908;2022-08-01T11:59:37;2.47;;;2.10;;
64875;SDS011;51369;49.862;9.908;2022-08-01T12:02:14;1.77;;;1.67;;
64875;SDS011;51369;49.862;9.908;2022-08-01T12:04:48;3.15;;;1.70;;
64875;SDS011;51369;49.862;9.908;2022-08-01T12:07:17;4.20;;;1.90;;
64875;SDS011;51369;49.862;9.908;2022-08-01T12:09:43;4.18;;;1.80;;
64875;SDS011;51369;49.862;9.908;2022-08-01T12:12:09;1.98;;;1.65;;
64875;SDS011;51369;49.862;9.908;2022-08-01T12:14:35;5.13;;;1.90;;
64875;SDS011;51369;49.862;9.908;2022-08-01T12:17:01;2.25;;;2.00;;
64875;SDS011;51369;49.862;9.908;2022-08-01T12:19:26;1.95;;;1.80;;
64875;SDS011;51369;49.862;9.908;2022-08-01T12:22:14;3.80;;;1.90;;
64875;SDS011;51369;49.862;9.908;2022-08-01T12:24:41;2.25;;;1.80;;
64875;SDS011;51369;49.862;9.908;2022-08-01T12:27:08;4.93;;;2.20;;
64875;SDS011;51369;49.862;9.908;2022-08-01T12:29:39;3.15;;;1.85;;
64875;SDS011;51369;49.862;9.908;2022-08-01T12:35:03;2.15;;;2.00;;
64875;SDS011;51369;49.862;9.908;2022-08-01T12:37:40;4.47;;;2.10;;
64875;SDS011;51369;49.862;9.908;2022-08-01T12:40:09;2.30;;;2.10;;
64875;SDS011;51369;49.862;9.908;2022-08-01T12:42:40;2.30;;;2.10;;
64875;SDS011;51369;49.862;9.908;2022-08-01T12:45:07;6.50;;;2.00;;
64875;SDS011;51369;49.862;9.908;2022-08-01T12:47:35;2.85;;;2.30;;
64875;SDS011;51369;49.862;9.908;2022-08-01T12:50:02;2.30;;;2.10;;
64875;SDS011;51369;49.862;9.908;2022-08-01T12:52:29;1.92;;;1.77;;
64875;SDS011;51369;49.862;9.908;2022-08-01T12:55:00;2.33;;;1.98;;
64875;SDS011;51369;49.862;9.908;2022-08-01T12:57:29;2.50;;;2.30;;
64875;SDS011;51369;49.862;9.908;2022-08-01T13:02:34;3.00;;;2.35;;
64875;SDS011;51369;49.862;9.908;2022-08-01T13:05:01;3.75;;;2.42;;
64875;SDS011;51369;49.862;9.908;2022-08-01T13:10:11;3.40;;;2.55;;
64875;SDS011;51369;49.862;9.908;2022-08-01T13:12:37;2.88;;;2.67;;
64875;SDS011;51369;49.862;9.908;2022-08-01T13:17:51;2.10;;;2.00;;
64875;SDS011;51369;49.862;9.908;2022-08-01T13:20:21;5.05;;;2.60;;
64875;SDS011;51369;49.862;9.908;2022-08-01T13:22:51;2.10;;;1.98;;
64875;SDS011;51369;49.862;9.908;2022-08-01T13:25:17;2.30;;;1.65;;
64875;SDS011;51369;49.862;9.908;2022-08-01T13:27:44;3.17;;;2.13;;
64875;SDS011;51369;49.862;9.908;2022-08-01T13:30:17;2.72;;;1.92;;
64875;SDS011;51369;49.862;9.908;2022-08-01T13:32:56;3.35;;;2.00;;
64875;SDS011;51369;49.862;9.908;2022-08-01T13:35:22;2.05;;;1.88;;
64875;SDS011;51369;49.862;9.908;2022-08-01T13:37:48;2.50;;;2.30;;
64875;SDS011;51369;49.862;9.908;2022-08-01T13:40:22;8.88;;;3.28;;
64875;SDS011;51369;49.862;9.908;2022-08-01T13:42:55;3.80;;;2.10;;
64875;SDS011;51369;49.862;9.908;2022-08-01T13:45:22;6.30;;;3.30;;
64875;SDS011;51369;49.862;9.908;2022-08-01T13:47:48;2.20;;;2.10;;
64875;SDS011;51369;49.862;9.908;2022-08-01T13:50:14;2.20;;;2.10;;
64875;SDS011;51369;49.862;9.908;2022-08-01T13:52:40;3.35;;;2.10;;
64875;SDS011;51369;49.862;9.908;2022-08-01T13:55:05;8.60;;;2.80;;
64875;SDS011;51369;49.862;9.908;2022-08-01T13:57:31;4.57;;;2.40;;
64875;SDS011;51369;49.862;9.908;2022-08-01T13:59:57;4.30;;;2.90;;
64875;SDS011;51369;49.862;9.908;2022-08-01T14:02:26;4.00;;;2.60;;
64875;SDS011;51369;49.862;9.908;2022-08-01T14:04:52;3.50;;;2.30;;
64875;SDS011;51369;49.862;9.908;2022-08-01T14:07:19;2.40;;;2.00;;
64875;SDS011;51369;49.862;9.908;2022-08-01T14:09:45;2.63;;;2.17;;
64875;SDS011;51369;49.862;9.908;2022-08-01T14:12:10;2.20;;;2.00;;
64875;SDS011;51369;49.862;9.908;2022-08-01T14:14:36;10.70;;;2.55;;
64875;SDS011;51369;49.862;9.908;2022-08-01T14:17:03;2.20;;;2.00;;
64875;SDS011;51369;49.862;9.908;2022-08-01T14:19:28;2.33;;;2.13;;
64875;SDS011;51369;49.862;9.908;2022-08-01T14:21:54;2.35;;;2.15;;
64875;SDS011;51369;49.862;9.908;2022-08-01T14:24:21;2.00;;;1.90;;
64875;SDS011;51369;49.862;9.908;2022-08-01T14:26:48;4.15;;;2.10;;
64875;SDS011;51369;49.862;9.908;2022-08-01T14:29:13;4.25;;;2.28;;
64875;SDS011;51369;49.862;9.908;2022-08-01T14:31:39;3.03;;;1.75;;
64875;SDS011;51369;49.862;9.908;2022-08-01T14:34:05;3.15;;;2.08;;
64875;SDS011;51369;49.862;9.908;2022-08-01T14:36:30;1.92;;;1.83;;
64875;SDS011;51369;49.862;9.908;2022-08-01T14:38:55;3.67;;;2.15;;
64875;SDS011;51369;49.862;9.908;2022-08-01T14:41:21;2.63;;;2.10;;
64875;SDS011;51369;49.862;9.908;2022-08-01T14:43:46;2.80;;;2.60;;
64875;SDS011;51369;49.862;9.908;2022-08-01T14:46:12;9.98;;;2.80;;
64875;SDS011;51369;49.862;9.908;2022-08-01T14:48:38;2.65;;;2.30;;
64875;SDS011;51369;49.862;9.908;2022-08-01T14:51:03;2.60;;;2.15;;
64875;SDS011;51369;49.862;9.908;2022-08-01T14:53:29;2.50;;;2.30;;
64875;SDS011;51369;49.862;9.908;2022-08-01T14:55:57;1.98;;;1.88;;
64875;SDS011;51369;49.862;9.908;2022-08-01T14:58:22;2.60;;;2.22;;
64875;SDS011;51369;49.862;9.908;2022-08-01T15:00:48;2.40;;;2.20;;
64875;SDS011;51369;49.862;9.908;2022-08-01T15:03:13;2.47;;;2.28;;
64875;SDS011;51369;49.862;9.908;2022-08-01T15:05:39;2.55;;;2.38;;
64875;SDS011;51369;49.862;9.908;2022-08-01T15:08:08;5.18;;;2.47;;
64875;SDS011;51369;49.862;9.908;2022-08-01T15:10:33;2.70;;;2.50;;
64875;SDS011;51369;49.862;9.908;2022-08-01T15:12:59;2.85;;;2.65;;
64875;SDS011;51369;49.862;9.908;2022-08-01T15:15:26;3.25;;;2.50;;
64875;SDS011;51369;49.862;9.908;2022-08-01T15:17:52;3.20;;;2.50;;
64875;SDS011;51369;49.862;9.908;2022-08-01T15:20:18;2.70;;;2.50;;
64875;SDS011;51369;49.862;9.908;2022-08-01T15:22:44;2.88;;;2.65;;
64875;SDS011;51369;49.862;9.908;2022-08-01T15:25:09;2.38;;;2.17;;
64875;SDS011;51369;49.862;9.908;2022-08-01T15:27:35;2.90;;;2.70;;
64875;SDS011;51369;49.862;9.908;2022-08-01T15:30:01;2.90;;;2.60;;
64875;SDS011;51369;49.862;9.908;2022-08-01T15:32:28;2.63;;;2.35;;
64875;SDS011;51369;49.862;9.908;2022-08-01T15:34:54;2.50;;;2.30;;
64875;SDS011;51369;49.862;9.908;2022-08-01T15:37:20;2.83;;;2.63;;
64875;SDS011;51369;49.862;9.908;2022-08-01T15:39:46;2.85;;;2.47;;
64875;SDS011;51369;49.862;9.908;2022-08-01T15:42:12;2.97;;;2.72;;
64875;SDS011;51369;49.862;9.908;2022-08-01T15:44:39;2.97;;;2.70;;
64875;SDS011;51369;49.862;9.908;2022-08-01T15:47:05;2.80;;;2.60;;
64875;SDS011;51369;49.862;9.908;2022-08-01T15:49:31;2.85;;;2.65;;